sensor_id;sensor_type;location;lat;lon;timestamp;P1;durP1;ratioP1;P2;durP2;ratioP2
14722;SDS011;7452;55.594;12.986;2023-02-15T00:01:44;47.77;;;27.97;;
14722;SDS011;7452;55.594;12.986;2023-02-15T00:04:17;45.97;;;27.20;;
14722;SDS011;7452;55.594;12.986;2023-02-15T00:06:47;51.67;;;28.50;;
14722;SDS011;7452;55.594;12.986;2023-02-15T00:09:15;48.33;;;26.63;;
14722;SDS011;7452;55.594;12.986;2023-02-15T00:11:42;47.87;;;27.70;;
14722;SDS011;7452;55.594;12.986;2023-02-15T00:14:17;51.63;;;27.87;;
14722;SDS011;7452;55.594;12.986;2023-02-15T00:16:46;50.27;;;27.07;;
14722;SDS011;7452;55.594;12.986;2023-02-15T00:19:17;48.77;;;26.77;;
14722;SDS011;7452;55.594;12.986;2023-02-15T00:21:48;47.43;;;26.20;;
14722;SDS011;7452;55.594;12.986;2023-02-15T00:24:17;48.90;;;26.70;;
14722;SDS011;7452;55.594;12.986;2023-02-15T00:26:45;48.37;;;26.63;;
14722;SDS011;7452;55.594;12.986;2023-02-15T00:29:13;47.77;;;25.73;;
14722;SDS011;7452;55.594;12.986;2023-02-15T00:31:42;54.80;;;27.33;;
14722;SDS011;7452;55.594;12.986;2023-02-15T00:34:10;46.93;;;25.10;;
14722;SDS011;7452;55.594;12.986;2023-02-15T00:36:40;44.53;;;26.10;;
14722;SDS011;7452;55.594;12.986;2023-02-15T00:39:09;53.17;;;27.67;;
14722;SDS011;7452;55.594;12.986;2023-02-15T00:41:36;48.33;;;27.10;;
14722;SDS011;7452;55.594;12.986;2023-02-15T00:44:04;48.90;;;26.93;;
14722;SDS011;7452;55.594;12.986;2023-02-15T00:46:32;48.43;;;26.50;;
14722;SDS011;7452;55.594;12.986;2023-02-15T00:49:00;47.10;;;26.13;;
14722;SDS011;7452;55.594;12.986;2023-02-15T00:51:27;45.77;;;25.03;;
14722;SDS011;7452;55.594;12.986;2023-02-15T00:53:58;51.60;;;26.27;;
14722;SDS011;7452;55.594;12.986;2023-02-15T00:56:29;52.03;;;26.73;;
14722;SDS011;7452;55.594;12.986;2023-02-15T00:58:57;50.00;;;26.73;;
14722;SDS011;7452;55.594;12.986;2023-02-15T01:01:25;47.93;;;27.20;;
14722;SDS011;7452;55.594;12.986;2023-02-15T01:03:52;52.50;;;27.43;;
14722;SDS011;7452;55.594;12.986;2023-02-15T01:06:19;49.90;;;27.07;;
14722;SDS011;7452;55.594;12.986;2023-02-15T01:08:47;51.87;;;26.47;;
14722;SDS011;7452;55.594;12.986;2023-02-15T01:11:14;49.23;;;25.87;;
14722;SDS011;7452;55.594;12.986;2023-02-15T01:13:48;49.90;;;27.40;;
14722;SDS011;7452;55.594;12.986;2023-02-15T01:16:18;48.37;;;26.20;;
14722;SDS011;7452;55.594;12.986;2023-02-15T01:18:45;50.70;;;25.33;;
14722;SDS011;7452;55.594;12.986;2023-02-15T01:21:12;50.93;;;26.37;;
14722;SDS011;7452;55.594;12.986;2023-02-15T01:23:41;51.07;;;25.70;;
14722;SDS011;7452;55.594;12.986;2023-02-15T01:26:08;56.00;;;27.77;;
14722;SDS011;7452;55.594;12.986;2023-02-15T01:28:35;52.00;;;26.70;;
14722;SDS011;7452;55.594;12.986;2023-02-15T01:31:08;53.27;;;28.03;;
14722;SDS011;7452;55.594;12.986;2023-02-15T01:33:36;52.33;;;27.17;;
14722;SDS011;7452;55.594;12.986;2023-02-15T01:36:04;52.57;;;26.30;;
14722;SDS011;7452;55.594;12.986;2023-02-15T01:38:32;57.50;;;27.87;;
14722;SDS011;7452;55.594;12.986;2023-02-15T01:41:05;50.37;;;27.77;;
14722;SDS011;7452;55.594;12.986;2023-02-15T01:43:53;53.57;;;27.60;;
14722;SDS011;7452;55.594;12.986;2023-02-15T01:46:27;53.77;;;27.63;;
14722;SDS011;7452;55.594;12.986;2023-02-15T01:49:00;50.67;;;27.80;;
14722;SDS011;7452;55.594;12.986;2023-02-15T01:51:29;50.90;;;27.70;;
14722;SDS011;7452;55.594;12.986;2023-02-15T01:53:59;52.87;;;27.63;;
14722;SDS011;7452;55.594;12.986;2023-02-15T01:56:32;51.70;;;28.63;;
14722;SDS011;7452;55.594;12.986;2023-02-15T01:59:03;55.43;;;28.47;;
14722;SDS011;7452;55.594;12.986;2023-02-15T02:01:34;51.97;;;27.13;;
14722;SDS011;7452;55.594;12.986;2023-02-15T02:04:05;53.47;;;28.50;;
14722;SDS011;7452;55.594;12.986;2023-02-15T02:06:39;55.33;;;28.07;;
14722;SDS011;7452;55.594;12.986;2023-02-15T02:09:06;63.87;;;30.27;;
14722;SDS011;7452;55.594;12.986;2023-02-15T02:11:35;53.33;;;28.90;;
14722;SDS011;7452;55.594;12.986;2023-02-15T02:14:04;56.33;;;28.90;;
14722;SDS011;7452;55.594;12.986;2023-02-15T02:16:34;55.40;;;28.40;;
14722;SDS011;7452;55.594;12.986;2023-02-15T02:19:49;55.57;;;28.57;;
14722;SDS011;7452;55.594;12.986;2023-02-15T02:22:42;53.53;;;28.00;;
14722;SDS011;7452;55.594;12.986;2023-02-15T02:25:36;57.63;;;28.57;;
14722;SDS011;7452;55.594;12.986;2023-02-15T02:28:27;55.77;;;28.13;;
14722;SDS011;7452;55.594;12.986;2023-02-15T02:31:28;56.03;;;29.20;;
14722;SDS011;7452;55.594;12.986;2023-02-15T02:34:14;57.67;;;29.30;;
14722;SDS011;7452;55.594;12.986;2023-02-15T02:36:44;59.13;;;28.43;;
14722;SDS011;7452;55.594;12.986;2023-02-15T02:39:23;58.60;;;30.07;;
14722;SDS011;7452;55.594;12.986;2023-02-15T02:42:01;58.27;;;29.37;;
14722;SDS011;7452;55.594;12.986;2023-02-15T02:44:34;63.03;;;30.93;;
14722;SDS011;7452;55.594;12.986;2023-02-15T02:47:09;61.17;;;31.00;;
14722;SDS011;7452;55.594;12.986;2023-02-15T02:49:46;53.93;;;28.30;;
14722;SDS011;7452;55.594;12.986;2023-02-15T02:52:34;58.37;;;27.83;;
14722;SDS011;7452;55.594;12.986;2023-02-15T02:55:16;60.13;;;28.93;;
14722;SDS011;7452;55.594;12.986;2023-02-15T02:57:50;59.27;;;30.37;;
14722;SDS011;7452;55.594;12.986;2023-02-15T03:00:20;60.23;;;29.57;;
14722;SDS011;7452;55.594;12.986;2023-02-15T03:02:51;60.50;;;30.33;;
14722;SDS011;7452;55.594;12.986;2023-02-15T03:05:26;57.17;;;29.20;;
14722;SDS011;7452;55.594;12.986;2023-02-15T03:07:55;56.17;;;28.23;;
14722;SDS011;7452;55.594;12.986;2023-02-15T03:10:26;56.37;;;29.17;;
14722;SDS011;7452;55.594;12.986;2023-02-15T03:12:55;54.70;;;29.30;;
14722;SDS011;7452;55.594;12.986;2023-02-15T03:15:23;56.63;;;29.60;;
14722;SDS011;7452;55.594;12.986;2023-02-15T03:18:13;60.23;;;30.80;;
14722;SDS011;7452;55.594;12.986;2023-02-15T03:20:43;58.00;;;29.63;;
14722;SDS011;7452;55.594;12.986;2023-02-15T03:23:12;52.43;;;28.07;;
14722;SDS011;7452;55.594;12.986;2023-02-15T03:25:46;55.93;;;30.00;;
14722;SDS011;7452;55.594;12.986;2023-02-15T03:28:18;62.33;;;30.00;;
14722;SDS011;7452;55.594;12.986;2023-02-15T03:30:51;56.17;;;30.07;;
14722;SDS011;7452;55.594;12.986;2023-02-15T03:33:21;57.50;;;29.70;;
14722;SDS011;7452;55.594;12.986;2023-02-15T03:35:52;55.47;;;28.50;;
14722;SDS011;7452;55.594;12.986;2023-02-15T03:38:26;53.47;;;27.90;;
14722;SDS011;7452;55.594;12.986;2023-02-15T03:41:03;54.00;;;28.87;;
14722;SDS011;7452;55.594;12.986;2023-02-15T03:43:41;53.50;;;27.17;;
14722;SDS011;7452;55.594;12.986;2023-02-15T03:46:15;54.13;;;28.07;;
14722;SDS011;7452;55.594;12.986;2023-02-15T03:48:50;53.37;;;27.10;;
14722;SDS011;7452;55.594;12.986;2023-02-15T03:51:23;53.47;;;28.60;;
14722;SDS011;7452;55.594;12.986;2023-02-15T03:54:00;57.33;;;28.17;;
14722;SDS011;7452;55.594;12.986;2023-02-15T03:56:30;50.70;;;27.13;;
14722;SDS011;7452;55.594;12.986;2023-02-15T03:58:59;47.33;;;26.87;;
14722;SDS011;7452;55.594;12.986;2023-02-15T04:01:47;52.83;;;27.27;;
14722;SDS011;7452;55.594;12.986;2023-02-15T04:04:25;51.30;;;27.47;;
14722;SDS011;7452;55.594;12.986;2023-02-15T04:06:58;49.10;;;27.07;;
14722;SDS011;7452;55.594;12.986;2023-02-15T04:09:26;51.37;;;27.57;;
14722;SDS011;7452;55.594;12.986;2023-02-15T04:12:10;51.87;;;27.07;;
14722;SDS011;7452;55.594;12.986;2023-02-15T04:14:38;56.03;;;27.50;;
14722;SDS011;7452;55.594;12.986;2023-02-15T04:17:24;49.17;;;26.77;;
14722;SDS011;7452;55.594;12.986;2023-02-15T04:19:52;50.97;;;27.80;;
14722;SDS011;7452;55.594;12.986;2023-02-15T04:22:38;54.33;;;27.57;;
14722;SDS011;7452;55.594;12.986;2023-02-15T04:25:23;50.03;;;26.40;;
14722;SDS011;7452;55.594;12.986;2023-02-15T04:27:51;51.80;;;27.40;;
14722;SDS011;7452;55.594;12.986;2023-02-15T04:30:20;51.77;;;27.77;;
14722;SDS011;7452;55.594;12.986;2023-02-15T04:32:49;47.87;;;26.23;;
14722;SDS011;7452;55.594;12.986;2023-02-15T04:35:17;52.57;;;26.87;;
14722;SDS011;7452;55.594;12.986;2023-02-15T04:37:48;52.30;;;27.20;;
14722;SDS011;7452;55.594;12.986;2023-02-15T04:40:17;52.27;;;26.57;;
14722;SDS011;7452;55.594;12.986;2023-02-15T04:42:45;50.50;;;26.30;;
14722;SDS011;7452;55.594;12.986;2023-02-15T04:45:13;52.57;;;27.23;;
14722;SDS011;7452;55.594;12.986;2023-02-15T04:47:42;51.87;;;28.53;;
14722;SDS011;7452;55.594;12.986;2023-02-15T04:50:10;50.40;;;27.77;;
14722;SDS011;7452;55.594;12.986;2023-02-15T04:52:38;51.90;;;26.73;;
14722;SDS011;7452;55.594;12.986;2023-02-15T04:55:07;54.00;;;28.13;;
14722;SDS011;7452;55.594;12.986;2023-02-15T04:57:36;54.20;;;27.83;;
14722;SDS011;7452;55.594;12.986;2023-02-15T05:00:04;55.40;;;27.57;;
14722;SDS011;7452;55.594;12.986;2023-02-15T05:02:33;51.57;;;27.40;;
14722;SDS011;7452;55.594;12.986;2023-02-15T05:05:01;48.10;;;27.20;;
14722;SDS011;7452;55.594;12.986;2023-02-15T05:07:29;56.27;;;27.67;;
14722;SDS011;7452;55.594;12.986;2023-02-15T05:10:02;50.97;;;26.17;;
14722;SDS011;7452;55.594;12.986;2023-02-15T05:12:32;50.47;;;27.27;;
14722;SDS011;7452;55.594;12.986;2023-02-15T05:15:00;50.73;;;27.70;;
14722;SDS011;7452;55.594;12.986;2023-02-15T05:17:27;56.23;;;29.17;;
14722;SDS011;7452;55.594;12.986;2023-02-15T05:19:55;50.90;;;28.50;;
14722;SDS011;7452;55.594;12.986;2023-02-15T05:22:24;58.87;;;29.60;;
14722;SDS011;7452;55.594;12.986;2023-02-15T05:24:51;61.80;;;29.33;;
14722;SDS011;7452;55.594;12.986;2023-02-15T05:27:39;57.57;;;27.83;;
14722;SDS011;7452;55.594;12.986;2023-02-15T05:30:25;53.30;;;28.03;;
14722;SDS011;7452;55.594;12.986;2023-02-15T05:33:05;54.27;;;27.87;;
14722;SDS011;7452;55.594;12.986;2023-02-15T05:35:32;56.30;;;27.77;;
14722;SDS011;7452;55.594;12.986;2023-02-15T05:38:00;52.33;;;28.73;;
14722;SDS011;7452;55.594;12.986;2023-02-15T05:40:27;52.13;;;28.37;;
14722;SDS011;7452;55.594;12.986;2023-02-15T05:42:57;58.77;;;29.73;;
14722;SDS011;7452;55.594;12.986;2023-02-15T05:45:25;59.30;;;29.30;;
14722;SDS011;7452;55.594;12.986;2023-02-15T05:47:52;60.60;;;29.93;;
14722;SDS011;7452;55.594;12.986;2023-02-15T05:50:20;61.60;;;29.83;;
14722;SDS011;7452;55.594;12.986;2023-02-15T05:52:47;56.17;;;29.50;;
14722;SDS011;7452;55.594;12.986;2023-02-15T05:55:14;58.20;;;29.93;;
14722;SDS011;7452;55.594;12.986;2023-02-15T05:57:41;51.77;;;28.00;;
14722;SDS011;7452;55.594;12.986;2023-02-15T06:00:11;59.37;;;29.33;;
14722;SDS011;7452;55.594;12.986;2023-02-15T06:02:40;55.90;;;29.40;;
14722;SDS011;7452;55.594;12.986;2023-02-15T06:05:08;56.83;;;28.93;;
14722;SDS011;7452;55.594;12.986;2023-02-15T06:07:35;61.63;;;29.23;;
14722;SDS011;7452;55.594;12.986;2023-02-15T06:10:05;55.03;;;27.40;;
14722;SDS011;7452;55.594;12.986;2023-02-15T06:12:33;55.83;;;29.20;;
14722;SDS011;7452;55.594;12.986;2023-02-15T06:15:00;49.90;;;28.30;;
14722;SDS011;7452;55.594;12.986;2023-02-15T06:17:32;54.90;;;28.00;;
14722;SDS011;7452;55.594;12.986;2023-02-15T06:20:01;52.77;;;27.90;;
14722;SDS011;7452;55.594;12.986;2023-02-15T06:22:28;49.00;;;26.77;;
14722;SDS011;7452;55.594;12.986;2023-02-15T06:24:56;51.77;;;26.53;;
14722;SDS011;7452;55.594;12.986;2023-02-15T06:27:23;49.40;;;26.73;;
14722;SDS011;7452;55.594;12.986;2023-02-15T06:29:50;50.53;;;28.67;;
14722;SDS011;7452;55.594;12.986;2023-02-15T06:32:17;49.33;;;26.60;;
14722;SDS011;7452;55.594;12.986;2023-02-15T06:34:46;51.83;;;27.27;;
14722;SDS011;7452;55.594;12.986;2023-02-15T06:37:13;54.57;;;28.37;;
14722;SDS011;7452;55.594;12.986;2023-02-15T06:39:41;47.73;;;26.30;;
14722;SDS011;7452;55.594;12.986;2023-02-15T06:42:09;47.83;;;27.97;;
14722;SDS011;7452;55.594;12.986;2023-02-15T06:44:36;48.00;;;27.43;;
14722;SDS011;7452;55.594;12.986;2023-02-15T06:47:03;54.43;;;27.83;;
14722;SDS011;7452;55.594;12.986;2023-02-15T06:49:30;51.77;;;28.67;;
14722;SDS011;7452;55.594;12.986;2023-02-15T06:51:59;53.53;;;29.70;;
14722;SDS011;7452;55.594;12.986;2023-02-15T06:54:26;49.50;;;28.27;;
14722;SDS011;7452;55.594;12.986;2023-02-15T06:56:58;49.60;;;28.00;;
14722;SDS011;7452;55.594;12.986;2023-02-15T06:59:25;49.77;;;28.10;;
14722;SDS011;7452;55.594;12.986;2023-02-15T07:01:52;51.80;;;27.43;;
14722;SDS011;7452;55.594;12.986;2023-02-15T07:04:19;51.87;;;29.00;;
14722;SDS011;7452;55.594;12.986;2023-02-15T07:06:47;56.90;;;30.83;;
14722;SDS011;7452;55.594;12.986;2023-02-15T07:09:15;54.37;;;29.90;;
14722;SDS011;7452;55.594;12.986;2023-02-15T07:11:43;54.03;;;28.73;;
14722;SDS011;7452;55.594;12.986;2023-02-15T07:14:39;55.83;;;28.97;;
14722;SDS011;7452;55.594;12.986;2023-02-15T07:17:06;54.93;;;30.23;;
14722;SDS011;7452;55.594;12.986;2023-02-15T07:19:35;55.47;;;28.97;;
14722;SDS011;7452;55.594;12.986;2023-02-15T07:22:04;56.37;;;29.50;;
14722;SDS011;7452;55.594;12.986;2023-02-15T07:24:33;51.07;;;29.50;;
14722;SDS011;7452;55.594;12.986;2023-02-15T07:27:00;52.20;;;28.40;;
14722;SDS011;7452;55.594;12.986;2023-02-15T07:29:27;51.30;;;29.23;;
14722;SDS011;7452;55.594;12.986;2023-02-15T07:31:54;55.03;;;30.20;;
14722;SDS011;7452;55.594;12.986;2023-02-15T07:34:21;55.57;;;28.83;;
14722;SDS011;7452;55.594;12.986;2023-02-15T07:36:50;57.47;;;29.30;;
14722;SDS011;7452;55.594;12.986;2023-02-15T07:39:18;57.67;;;29.43;;
14722;SDS011;7452;55.594;12.986;2023-02-15T07:41:47;59.80;;;29.93;;
14722;SDS011;7452;55.594;12.986;2023-02-15T07:44:15;57.40;;;30.47;;
14722;SDS011;7452;55.594;12.986;2023-02-15T07:46:42;57.97;;;29.23;;
14722;SDS011;7452;55.594;12.986;2023-02-15T07:49:09;56.33;;;30.07;;
14722;SDS011;7452;55.594;12.986;2023-02-15T07:51:37;60.23;;;29.43;;
14722;SDS011;7452;55.594;12.986;2023-02-15T07:54:05;57.40;;;30.07;;
14722;SDS011;7452;55.594;12.986;2023-02-15T07:56:33;59.03;;;30.57;;
14722;SDS011;7452;55.594;12.986;2023-02-15T07:59:03;59.23;;;30.57;;
14722;SDS011;7452;55.594;12.986;2023-02-15T08:01:31;52.33;;;29.83;;
14722;SDS011;7452;55.594;12.986;2023-02-15T08:04:00;56.77;;;30.67;;
14722;SDS011;7452;55.594;12.986;2023-02-15T08:06:29;50.63;;;27.40;;
14722;SDS011;7452;55.594;12.986;2023-02-15T08:08:57;52.27;;;29.23;;
14722;SDS011;7452;55.594;12.986;2023-02-15T08:11:26;57.50;;;30.10;;
14722;SDS011;7452;55.594;12.986;2023-02-15T08:14:09;59.27;;;29.83;;
14722;SDS011;7452;55.594;12.986;2023-02-15T08:16:38;55.57;;;29.20;;
14722;SDS011;7452;55.594;12.986;2023-02-15T08:19:06;50.57;;;28.80;;
14722;SDS011;7452;55.594;12.986;2023-02-15T08:21:35;55.27;;;28.73;;
14722;SDS011;7452;55.594;12.986;2023-02-15T08:24:04;50.03;;;28.27;;
14722;SDS011;7452;55.594;12.986;2023-02-15T08:26:35;54.13;;;29.23;;
14722;SDS011;7452;55.594;12.986;2023-02-15T08:29:05;57.60;;;29.80;;
14722;SDS011;7452;55.594;12.986;2023-02-15T08:31:34;62.13;;;30.53;;
14722;SDS011;7452;55.594;12.986;2023-02-15T08:34:02;54.10;;;29.23;;
14722;SDS011;7452;55.594;12.986;2023-02-15T08:36:30;54.03;;;30.20;;
14722;SDS011;7452;55.594;12.986;2023-02-15T08:38:59;51.23;;;29.20;;
14722;SDS011;7452;55.594;12.986;2023-02-15T08:41:30;51.97;;;30.10;;
14722;SDS011;7452;55.594;12.986;2023-02-15T08:43:59;56.23;;;29.40;;
14722;SDS011;7452;55.594;12.986;2023-02-15T08:46:28;53.20;;;28.93;;
14722;SDS011;7452;55.594;12.986;2023-02-15T08:48:58;53.33;;;29.00;;
14722;SDS011;7452;55.594;12.986;2023-02-15T08:51:26;52.07;;;28.83;;
14722;SDS011;7452;55.594;12.986;2023-02-15T08:53:55;54.53;;;28.83;;
14722;SDS011;7452;55.594;12.986;2023-02-15T08:56:25;57.67;;;30.13;;
14722;SDS011;7452;55.594;12.986;2023-02-15T08:58:55;52.23;;;29.07;;
14722;SDS011;7452;55.594;12.986;2023-02-15T09:01:23;56.17;;;30.17;;
14722;SDS011;7452;55.594;12.986;2023-02-15T09:03:53;55.40;;;30.00;;
14722;SDS011;7452;55.594;12.986;2023-02-15T09:06:23;53.93;;;28.87;;
14722;SDS011;7452;55.594;12.986;2023-02-15T09:08:51;53.43;;;29.57;;
14722;SDS011;7452;55.594;12.986;2023-02-15T09:11:21;51.90;;;29.33;;
14722;SDS011;7452;55.594;12.986;2023-02-15T09:13:53;51.73;;;29.03;;
14722;SDS011;7452;55.594;12.986;2023-02-15T09:16:22;57.83;;;30.10;;
14722;SDS011;7452;55.594;12.986;2023-02-15T09:18:53;57.83;;;32.80;;
14722;SDS011;7452;55.594;12.986;2023-02-15T09:21:24;54.20;;;30.27;;
14722;SDS011;7452;55.594;12.986;2023-02-15T09:23:55;55.40;;;29.10;;
14722;SDS011;7452;55.594;12.986;2023-02-15T09:26:23;49.63;;;28.37;;
14722;SDS011;7452;55.594;12.986;2023-02-15T09:28:52;48.90;;;28.50;;
14722;SDS011;7452;55.594;12.986;2023-02-15T09:31:22;48.53;;;28.03;;
14722;SDS011;7452;55.594;12.986;2023-02-15T09:33:51;48.60;;;27.80;;
14722;SDS011;7452;55.594;12.986;2023-02-15T09:36:20;49.47;;;28.10;;
14722;SDS011;7452;55.594;12.986;2023-02-15T09:38:54;49.37;;;28.23;;
14722;SDS011;7452;55.594;12.986;2023-02-15T09:41:28;49.93;;;28.00;;
14722;SDS011;7452;55.594;12.986;2023-02-15T09:44:07;50.67;;;29.30;;
14722;SDS011;7452;55.594;12.986;2023-02-15T09:46:47;54.07;;;30.47;;
14722;SDS011;7452;55.594;12.986;2023-02-15T09:49:38;49.63;;;29.60;;
14722;SDS011;7452;55.594;12.986;2023-02-15T09:52:17;50.67;;;29.20;;
14722;SDS011;7452;55.594;12.986;2023-02-15T09:57:52;51.43;;;29.63;;
14722;SDS011;7452;55.594;12.986;2023-02-15T10:00:31;51.87;;;29.10;;
14722;SDS011;7452;55.594;12.986;2023-02-15T10:03:11;50.87;;;29.00;;
14722;SDS011;7452;55.594;12.986;2023-02-15T10:05:53;52.57;;;30.60;;
14722;SDS011;7452;55.594;12.986;2023-02-15T10:08:51;53.27;;;30.20;;
14722;SDS011;7452;55.594;12.986;2023-02-15T10:12:07;53.77;;;28.40;;
14722;SDS011;7452;55.594;12.986;2023-02-15T10:14:53;51.10;;;29.77;;
14722;SDS011;7452;55.594;12.986;2023-02-15T10:17:38;57.47;;;30.53;;
14722;SDS011;7452;55.594;12.986;2023-02-15T10:20:17;52.13;;;30.57;;
14722;SDS011;7452;55.594;12.986;2023-02-15T10:22:57;53.07;;;30.20;;
14722;SDS011;7452;55.594;12.986;2023-02-15T10:25:37;54.70;;;30.40;;
14722;SDS011;7452;55.594;12.986;2023-02-15T10:28:11;57.03;;;31.37;;
14722;SDS011;7452;55.594;12.986;2023-02-15T10:30:46;55.33;;;30.70;;
14722;SDS011;7452;55.594;12.986;2023-02-15T10:33:28;51.87;;;29.70;;
14722;SDS011;7452;55.594;12.986;2023-02-15T10:36:08;49.60;;;29.20;;
14722;SDS011;7452;55.594;12.986;2023-02-15T10:38:48;50.17;;;29.73;;
14722;SDS011;7452;55.594;12.986;2023-02-15T10:41:26;51.33;;;29.80;;
14722;SDS011;7452;55.594;12.986;2023-02-15T10:44:13;52.57;;;30.43;;
14722;SDS011;7452;55.594;12.986;2023-02-15T10:49:59;53.93;;;32.17;;
14722;SDS011;7452;55.594;12.986;2023-02-15T10:52:47;53.77;;;29.57;;
14722;SDS011;7452;55.594;12.986;2023-02-15T10:55:29;54.90;;;29.47;;
14722;SDS011;7452;55.594;12.986;2023-02-15T10:58:10;50.53;;;29.07;;
14722;SDS011;7452;55.594;12.986;2023-02-15T11:00:50;52.97;;;31.43;;
14722;SDS011;7452;55.594;12.986;2023-02-15T11:03:35;52.33;;;30.37;;
14722;SDS011;7452;55.594;12.986;2023-02-15T11:06:15;51.40;;;29.70;;
14722;SDS011;7452;55.594;12.986;2023-02-15T11:08:46;50.37;;;30.43;;
14722;SDS011;7452;55.594;12.986;2023-02-15T11:11:20;50.83;;;29.27;;
14722;SDS011;7452;55.594;12.986;2023-02-15T11:13:51;49.43;;;28.53;;
14722;SDS011;7452;55.594;12.986;2023-02-15T11:16:25;57.10;;;31.10;;
14722;SDS011;7452;55.594;12.986;2023-02-15T11:18:57;54.07;;;31.43;;
14722;SDS011;7452;55.594;12.986;2023-02-15T11:21:29;52.10;;;31.97;;
14722;SDS011;7452;55.594;12.986;2023-02-15T11:24:07;54.53;;;31.07;;
14722;SDS011;7452;55.594;12.986;2023-02-15T11:26:37;53.13;;;30.63;;
14722;SDS011;7452;55.594;12.986;2023-02-15T11:29:10;54.00;;;31.17;;
14722;SDS011;7452;55.594;12.986;2023-02-15T11:31:46;55.70;;;31.17;;
14722;SDS011;7452;55.594;12.986;2023-02-15T11:34:18;55.33;;;29.83;;
14722;SDS011;7452;55.594;12.986;2023-02-15T11:36:50;53.63;;;31.03;;
14722;SDS011;7452;55.594;12.986;2023-02-15T11:39:21;56.43;;;31.33;;
14722;SDS011;7452;55.594;12.986;2023-02-15T11:41:55;50.03;;;28.77;;
14722;SDS011;7452;55.594;12.986;2023-02-15T11:44:27;53.23;;;30.27;;
14722;SDS011;7452;55.594;12.986;2023-02-15T11:47:02;51.80;;;29.10;;
14722;SDS011;7452;55.594;12.986;2023-02-15T11:49:30;53.33;;;30.83;;
14722;SDS011;7452;55.594;12.986;2023-02-15T11:51:58;57.37;;;32.73;;
14722;SDS011;7452;55.594;12.986;2023-02-15T11:54:29;54.67;;;31.13;;
14722;SDS011;7452;55.594;12.986;2023-02-15T11:56:59;55.13;;;29.97;;
14722;SDS011;7452;55.594;12.986;2023-02-15T11:59:36;58.27;;;31.67;;
14722;SDS011;7452;55.594;12.986;2023-02-15T12:02:14;55.53;;;29.87;;
14722;SDS011;7452;55.594;12.986;2023-02-15T12:04:47;48.03;;;29.37;;
14722;SDS011;7452;55.594;12.986;2023-02-15T12:07:20;50.03;;;28.67;;
14722;SDS011;7452;55.594;12.986;2023-02-15T12:09:52;51.97;;;30.40;;
14722;SDS011;7452;55.594;12.986;2023-02-15T12:12:27;52.43;;;29.13;;
14722;SDS011;7452;55.594;12.986;2023-02-15T12:14:56;54.63;;;30.83;;
14722;SDS011;7452;55.594;12.986;2023-02-15T12:17:27;48.57;;;30.37;;
14722;SDS011;7452;55.594;12.986;2023-02-15T12:19:56;55.50;;;30.30;;
14722;SDS011;7452;55.594;12.986;2023-02-15T12:22:27;52.47;;;31.13;;
14722;SDS011;7452;55.594;12.986;2023-02-15T12:24:58;52.00;;;30.30;;
14722;SDS011;7452;55.594;12.986;2023-02-15T12:27:26;54.20;;;31.10;;
14722;SDS011;7452;55.594;12.986;2023-02-15T12:29:56;60.60;;;33.07;;
14722;SDS011;7452;55.594;12.986;2023-02-15T12:32:28;53.37;;;32.03;;
14722;SDS011;7452;55.594;12.986;2023-02-15T12:35:00;53.10;;;31.87;;
14722;SDS011;7452;55.594;12.986;2023-02-15T12:37:33;54.40;;;31.63;;
14722;SDS011;7452;55.594;12.986;2023-02-15T12:40:02;54.07;;;31.63;;
14722;SDS011;7452;55.594;12.986;2023-02-15T12:42:44;52.93;;;31.63;;
14722;SDS011;7452;55.594;12.986;2023-02-15T12:45:20;55.73;;;31.90;;
14722;SDS011;7452;55.594;12.986;2023-02-15T12:50:43;55.33;;;31.30;;
14722;SDS011;7452;55.594;12.986;2023-02-15T12:53:18;55.50;;;32.13;;
14722;SDS011;7452;55.594;12.986;2023-02-15T12:55:49;56.80;;;32.37;;
14722;SDS011;7452;55.594;12.986;2023-02-15T12:58:22;64.87;;;32.93;;
14722;SDS011;7452;55.594;12.986;2023-02-15T13:01:01;56.70;;;32.90;;
14722;SDS011;7452;55.594;12.986;2023-02-15T13:03:35;61.20;;;32.63;;
14722;SDS011;7452;55.594;12.986;2023-02-15T13:06:04;56.73;;;32.37;;
14722;SDS011;7452;55.594;12.986;2023-02-15T13:08:33;59.57;;;33.77;;
14722;SDS011;7452;55.594;12.986;2023-02-15T13:11:06;58.20;;;33.27;;
14722;SDS011;7452;55.594;12.986;2023-02-15T13:13:38;59.73;;;33.03;;
14722;SDS011;7452;55.594;12.986;2023-02-15T13:16:19;57.77;;;33.07;;
14722;SDS011;7452;55.594;12.986;2023-02-15T13:19:02;58.47;;;32.50;;
14722;SDS011;7452;55.594;12.986;2023-02-15T13:21:33;60.60;;;34.10;;
14722;SDS011;7452;55.594;12.986;2023-02-15T13:24:04;59.73;;;33.30;;
14722;SDS011;7452;55.594;12.986;2023-02-15T13:26:34;61.30;;;34.43;;
14722;SDS011;7452;55.594;12.986;2023-02-15T13:29:04;59.33;;;33.27;;
14722;SDS011;7452;55.594;12.986;2023-02-15T13:31:34;57.57;;;33.97;;
14722;SDS011;7452;55.594;12.986;2023-02-15T13:34:10;63.50;;;34.77;;
14722;SDS011;7452;55.594;12.986;2023-02-15T13:36:46;57.27;;;33.67;;
14722;SDS011;7452;55.594;12.986;2023-02-15T13:39:20;63.90;;;35.73;;
14722;SDS011;7452;55.594;12.986;2023-02-15T13:41:56;61.03;;;34.63;;
14722;SDS011;7452;55.594;12.986;2023-02-15T13:44:51;66.37;;;35.50;;
14722;SDS011;7452;55.594;12.986;2023-02-15T13:47:27;59.07;;;33.33;;
14722;SDS011;7452;55.594;12.986;2023-02-15T13:55:49;61.03;;;32.97;;
14722;SDS011;7452;55.594;12.986;2023-02-15T13:58:34;65.10;;;35.90;;
14722;SDS011;7452;55.594;12.986;2023-02-15T14:01:18;62.07;;;34.97;;
14722;SDS011;7452;55.594;12.986;2023-02-15T14:10:00;61.53;;;34.27;;
14722;SDS011;7452;55.594;12.986;2023-02-15T14:12:47;63.00;;;34.57;;
14722;SDS011;7452;55.594;12.986;2023-02-15T14:15:26;63.73;;;35.00;;
14722;SDS011;7452;55.594;12.986;2023-02-15T14:18:04;63.70;;;36.17;;
14722;SDS011;7452;55.594;12.986;2023-02-15T14:20:44;62.60;;;35.33;;
14722;SDS011;7452;55.594;12.986;2023-02-15T14:23:20;62.90;;;35.07;;
14722;SDS011;7452;55.594;12.986;2023-02-15T14:25:57;63.60;;;35.43;;
14722;SDS011;7452;55.594;12.986;2023-02-15T14:28:34;64.37;;;36.57;;
14722;SDS011;7452;55.594;12.986;2023-02-15T14:31:09;60.90;;;34.57;;
14722;SDS011;7452;55.594;12.986;2023-02-15T14:33:41;58.13;;;34.20;;
14722;SDS011;7452;55.594;12.986;2023-02-15T14:36:13;66.27;;;35.70;;
14722;SDS011;7452;55.594;12.986;2023-02-15T14:38:51;68.07;;;35.77;;
14722;SDS011;7452;55.594;12.986;2023-02-15T14:41:29;62.43;;;34.83;;
14722;SDS011;7452;55.594;12.986;2023-02-15T14:44:04;68.33;;;36.60;;
14722;SDS011;7452;55.594;12.986;2023-02-15T14:46:38;60.97;;;34.63;;
14722;SDS011;7452;55.594;12.986;2023-02-15T14:49:12;63.97;;;35.57;;
14722;SDS011;7452;55.594;12.986;2023-02-15T14:51:56;76.07;;;37.30;;
14722;SDS011;7452;55.594;12.986;2023-02-15T14:57:31;68.33;;;36.07;;
14722;SDS011;7452;55.594;12.986;2023-02-15T15:00:00;71.90;;;35.77;;
14722;SDS011;7452;55.594;12.986;2023-02-15T15:02:43;67.70;;;36.20;;
14722;SDS011;7452;55.594;12.986;2023-02-15T15:05:16;73.13;;;37.97;;
14722;SDS011;7452;55.594;12.986;2023-02-15T15:07:46;77.13;;;39.90;;
14722;SDS011;7452;55.594;12.986;2023-02-15T15:13:34;78.63;;;37.63;;
14722;SDS011;7452;55.594;12.986;2023-02-15T15:16:30;75.37;;;36.90;;
14722;SDS011;7452;55.594;12.986;2023-02-15T15:22:29;84.20;;;34.80;;
14722;SDS011;7452;55.594;12.986;2023-02-15T15:24:57;84.20;;;34.27;;